Time;durP1;ratioP1;P1;durP2;ratioP2;P2;SDS_P1;SDS_P2;PMS_P1;PMS_P2;Temp;Humidity;BMP_temperature;BMP_pressure;BME280_temperature;BME280_humidity;BME280_pressure;Samples;Min_cycle;Max_cycle;Signal;HPM_P1;HPM_P2
2023/10/15 00:01:14;;;;;;;12.32;1.90;;;;;;;11.17;88.83;100818.94;8334110;28;20136;-58
2023/10/15 00:05:18;;;;;;;12.95;1.85;;;;;;;11.20;88.46;100824.03;8344493;28;20060;-58
2023/10/15 00:09:20;;;;;;;8.40;2.30;;;;;;;11.24;88.99;100820.09;8343626;28;20485;-59
2023/10/15 00:13:20;;;;;;;9.85;1.65;;;;;;;11.26;88.86;100812.66;8342392;28;20046;-58
2023/10/15 00:17:20;;;;;;;5.13;1.27;;;;;;;11.20;88.43;100817.78;8344537;28;20044;-58
2023/10/15 00:21:21;;;;;;;9.55;2.08;;;;;;;11.02;88.57;100814.88;8342566;28;20533;-58
2023/10/15 00:25:21;;;;;;;4.35;1.48;;;;;;;10.90;90.14;100813.25;8314017;28;20050;-58
2023/10/15 00:29:24;;;;;;;7.07;1.83;;;;;;;10.90;89.67;100810.56;8336786;28;20030;-59
2023/10/15 00:33:25;;;;;;;6.45;1.85;;;;;;;10.89;91.76;100814.22;8339876;28;20068;-58
2023/10/15 00:37:25;;;;;;;5.25;1.50;;;;;;;10.95;89.59;100812.84;8341523;28;20075;-58
2023/10/15 00:41:27;;;;;;;6.65;1.73;;;;;;;10.84;90.96;100811.09;8331851;28;20136;-58
2023/10/15 00:45:34;;;;;;;15.02;2.17;;;;;;;10.43;90.69;100821.09;8343696;28;20036;-58
2023/10/15 00:49:36;;;;;;;11.88;1.90;;;;;;;10.34;92.64;100819.19;8339163;28;20029;-59
2023/10/15 00:53:48;;;;;;;5.72;1.60;;;;;;;10.02;94.48;100817.38;8337186;28;20045;-59
2023/10/15 00:57:55;;;;;;;5.53;1.63;;;;;;;9.99;93.66;100823.03;8338675;28;20088;-61
2023/10/15 01:02:03;;;;;;;10.30;1.90;;;;;;;10.16;93.28;100827.03;8324526;28;20037;-62
2023/10/15 01:06:05;;;;;;;4.97;1.65;;;;;;;10.16;93.12;100829.75;8320850;28;20492;-64
2023/10/15 01:10:08;;;;;;;10.90;1.63;;;;;;;10.04;91.80;100830.75;8320688;28;20116;-59
2023/10/15 01:14:10;;;;;;;8.77;1.70;;;;;;;9.92;92.02;100832.59;8336393;28;20094;-61
2023/10/15 01:18:12;;;;;;;8.02;1.67;;;;;;;9.92;91.86;100827.19;8284106;28;20483;-61
2023/10/15 01:22:18;;;;;;;9.25;2.03;;;;;;;9.88;91.63;100814.09;8286577;28;20419;-61
2023/10/15 01:26:23;;;;;;;8.15;1.65;;;;;;;9.73;92.45;100812.69;8310372;28;20129;-59
2023/10/15 01:30:24;;;;;;;8.25;1.42;;;;;;;9.85;93.36;100815.22;8312955;28;20471;-61
2023/10/15 01:34:25;;;;;;;6.78;1.33;;;;;;;9.93;93.61;100817.28;8286239;28;20335;-60
2023/10/15 01:38:27;;;;;;;8.77;1.55;;;;;;;9.85;93.89;100811.66;8283055;28;20056;-60
2023/10/15 01:47:11;;;;;;;12.95;1.90;;;;;;;9.73;92.58;100810.84;8368018;27;21162;-59
2023/10/15 01:51:04;;;;;;;5.85;1.48;;;;;;;9.66;91.83;100797.97;8358097;28;20265;-58
2023/10/15 01:55:06;;;;;;;7.18;1.45;;;;;;;9.84;92.76;100804.53;8361739;28;20040;-58
2023/10/15 01:59:08;;;;;;;7.38;1.70;;;;;;;9.92;93.24;100796.66;8385664;28;20055;-61
2023/10/15 02:03:12;;;;;;;5.75;1.20;;;;;;;9.52;93.73;100818.00;8418881;28;20059;-61
2023/10/15 02:07:17;;;;;;;7.30;1.92;;;;;;;9.61;95.83;100794.81;8415364;28;20418;-61
2023/10/15 02:11:21;;;;;;;7.72;1.98;;;;;;;9.15;95.00;100807.69;8417507;28;20056;-61
2023/10/15 02:15:22;;;;;;;12.45;1.75;;;;;;;9.23;95.60;100811.47;8418183;28;20415;-61
2023/10/15 02:19:40;;;;;;;8.10;1.38;;;;;;;8.99;96.34;100807.19;8409027;28;20059;-61
2023/10/15 02:23:49;;;;;;;4.72;1.35;;;;;;;8.95;98.11;100801.22;8414656;28;20067;-61
2023/10/15 02:27:49;;;;;;;15.27;1.92;;;;;;;9.27;96.18;100806.69;8417919;28;20033;-61
2023/10/15 02:31:50;;;;;;;8.85;1.80;;;;;;;9.45;95.95;100805.16;8441314;28;20036;-61
2023/10/15 02:35:54;;;;;;;7.82;1.67;;;;;;;9.70;95.45;100802.16;8450745;28;20579;-61
2023/10/15 02:39:57;;;;;;;12.57;1.58;;;;;;;9.62;94.68;100791.13;8451357;28;20040;-61
2023/10/15 02:43:57;;;;;;;10.77;1.90;;;;;;;9.75;94.42;100791.81;8450461;28;20040;-60
2023/10/15 02:48:09;;;;;;;7.57;1.52;;;;;;;9.84;94.70;100785.63;8450947;28;20052;-61
2023/10/15 02:52:18;;;;;;;9.57;1.73;;;;;;;10.09;93.03;100785.28;8445041;28;20527;-59
2023/10/15 02:56:20;;;;;;;8.52;1.80;;;;;;;10.08;94.41;100797.09;8425968;28;20036;-58
2023/10/15 03:00:28;;;;;;;6.03;1.75;;;;;;;10.08;93.58;100807.91;8376625;28;20046;-60
2023/10/15 03:04:33;;;;;;;6.97;1.85;;;;;;;9.85;93.63;100803.53;8390618;28;20087;-60
2023/10/15 03:08:35;;;;;;;12.40;2.35;;;;;;;10.06;93.62;100807.13;8390760;28;20037;-59
2023/10/15 03:12:43;;;;;;;8.48;2.33;;;;;;;10.30;93.06;100805.06;8394213;28;20076;-60
2023/10/15 03:16:44;;;;;;;11.88;2.35;;;;;;;10.53;92.83;100806.66;8418398;28;20489;-60
2023/10/15 03:20:49;;;;;;;7.93;2.30;;;;;;;10.73;91.61;100811.19;8427462;28;20402;-59
2023/10/15 03:24:53;;;;;;;7.32;2.08;;;;;;;10.79;90.53;100802.53;8426469;28;20085;-59
2023/10/15 03:28:58;;;;;;;8.50;2.25;;;;;;;10.89;90.83;100808.81;8425554;28;20048;-59
2023/10/15 03:33:00;;;;;;;8.68;1.88;;;;;;;10.86;90.91;100803.69;8418318;28;20056;-59
2023/10/15 03:37:01;;;;;;;10.10;2.80;;;;;;;10.92;90.67;100797.72;8412736;28;20040;-59
2023/10/15 03:41:39;;;;;;;11.02;1.85;;;;;;;10.91;89.50;100806.84;8425429;28;20051;-59
2023/10/15 03:45:26;;;;;;;7.13;2.35;;;;;;;10.87;89.64;100799.16;8422948;28;20040;-59
2023/10/15 03:49:27;;;;;;;11.82;2.10;;;;;;;10.79;88.26;100797.13;8395461;28;20363;-59
2023/10/15 03:53:28;;;;;;;10.98;2.75;;;;;;;10.69;88.71;100788.09;8337155;28;20543;-58
2023/10/15 03:57:28;;;;;;;9.77;2.50;;;;;;;10.60;88.78;100807.84;8379940;28;20300;-57
2023/10/15 04:01:30;;;;;;;7.68;2.40;;;;;;;10.56;89.25;100803.69;8392787;28;20379;-58
2023/10/15 04:05:32;;;;;;;11.65;2.53;;;;;;;10.64;88.53;100814.69;8390094;28;20131;-62
2023/10/15 04:09:34;;;;;;;6.43;1.92;;;;;;;10.75;89.00;100801.09;8355789;28;20259;-60
2023/10/15 04:13:35;;;;;;;5.82;2.22;;;;;;;10.68;88.45;100808.03;8353878;28;20040;-62
2023/10/15 04:17:35;;;;;;;8.60;1.90;;;;;;;10.68;88.26;100816.16;8391905;28;20036;-61
2023/10/15 04:21:40;;;;;;;9.38;2.40;;;;;;;10.64;88.25;100811.97;8391514;28;20040;-60
2023/10/15 04:25:40;;;;;;;;;;;;;;;10.68;87.63;100816.16;8388277;28;20068;-60
2023/10/15 04:29:49;;;;;;;12.82;1.92;;;;;;;10.63;87.11;100804.88;8370486;28;19986;-61
2023/10/15 04:33:51;;;;;;;5.28;1.83;;;;;;;10.66;87.50;100817.25;8336637;28;20028;-60
2023/10/15 04:37:53;;;;;;;6.82;2.30;;;;;;;10.60;87.36;100821.34;8336478;28;20047;-60
2023/10/15 04:41:55;;;;;;;7.22;2.00;;;;;;;10.68;87.73;100816.16;8384600;28;20119;-58
2023/10/15 04:45:57;;;;;;;5.57;2.00;;;;;;;10.72;87.17;100814.88;8390674;28;20064;-59
2023/10/15 04:49:57;;;;;;;9.88;1.75;;;;;;;10.79;87.06;100818.75;8369903;28;20123;-60
2023/10/15 04:54:00;;;;;;;8.13;2.17;;;;;;;10.85;86.67;100815.50;8414392;28;20039;-58
2023/10/15 04:58:00;;;;;;;10.40;2.40;;;;;;;10.81;87.05;100822.19;8423977;28;20351;-61
2023/10/15 05:02:01;;;;;;;6.53;2.15;;;;;;;10.80;87.14;100823.16;8424571;28;20089;-58
2023/10/15 05:06:03;;;;;;;9.60;1.90;;;;;;;10.70;86.89;100819.56;8367556;28;20139;-60
2023/10/15 05:10:03;;;;;;;8.82;2.47;;;;;;;10.64;87.11;100825.50;8335295;28;20436;-60
2023/10/15 05:14:04;;;;;;;7.32;2.00;;;;;;;10.49;87.31;100809.78;8380906;28;20044;-58
2023/10/15 05:18:05;;;;;;;8.75;1.58;;;;;;;10.43;87.30;100815.69;8390264;28;20041;-59
2023/10/15 05:22:05;;;;;;;6.38;1.60;;;;;;;10.37;87.68;100817.06;8362966;28;20045;-60
2023/10/15 05:26:06;;;;;;;5.35;1.73;;;;;;;10.26;88.82;100811.75;8352637;28;20461;-58
2023/10/15 05:30:09;;;;;;;3.92;2.03;;;;;;;10.13;89.04;100818.31;8388391;28;20429;-59
2023/10/15 05:34:10;;;;;;;5.60;2.17;;;;;;;10.06;89.83;100823.34;8380910;28;20040;-61
2023/10/15 05:38:11;;;;;;;4.75;1.75;;;;;;;10.06;90.46;100827.91;8388597;28;20040;-60
2023/10/15 05:42:11;;;;;;;6.70;1.60;;;;;;;10.26;90.37;100840.59;8387864;28;20041;-59
2023/10/15 05:46:12;;;;;;;6.30;1.70;;;;;;;10.48;88.64;100846.75;8389303;28;20067;-60
2023/10/15 05:50:13;;;;;;;5.18;1.48;;;;;;;10.77;86.69;100846.94;8388183;28;20494;-58
2023/10/15 05:54:13;;;;;;;4.30;1.10;;;;;;;10.96;85.85;100858.72;8389219;28;20036;-59
2023/10/15 05:58:14;;;;;;;4.95;1.63;;;;;;;10.92;87.93;100862.66;8387396;28;20044;-58
2023/10/15 06:02:15;;;;;;;4.28;1.63;;;;;;;10.68;90.70;100875.63;8382636;28;20089;-59
2023/10/15 06:06:16;;;;;;;6.38;1.70;;;;;;;10.55;93.54;100885.78;8387849;28;20036;-58
2023/10/15 06:10:16;;;;;;;5.70;1.67;;;;;;;10.44;94.53;100890.38;8358594;28;20052;-60
2023/10/15 06:14:17;;;;;;;7.15;2.78;;;;;;;10.43;95.45;100884.09;8372317;28;20513;-60
2023/10/15 06:18:17;;;;;;;6.50;3.03;;;;;;;10.45;96.12;100890.25;8388826;28;20060;-60
2023/10/15 06:22:18;;;;;;;4.10;2.47;;;;;;;10.40;96.19;100892.47;8388850;28;20460;-61
2023/10/15 06:26:18;;;;;;;5.32;2.72;;;;;;;10.50;96.88;100909.66;8388333;28;20045;-61
2023/10/15 06:30:19;;;;;;;9.20;3.40;;;;;;;10.52;97.51;100918.47;8344769;28;20047;-59
2023/10/15 06:34:20;;;;;;;7.13;3.22;;;;;;;10.48;99.02;100908.91;8340157;28;20036;-59
2023/10/15 06:38:20;;;;;;;8.75;2.97;;;;;;;10.45;98.11;100871.34;8376489;28;20135;-62
2023/10/15 06:42:22;;;;;;;10.70;2.95;;;;;;;10.53;98.38;100876.94;8391422;28;20107;-61
2023/10/15 06:46:23;;;;;;;5.32;3.22;;;;;;;10.58;99.04;100890.91;8340780;28;20271;-60
2023/10/15 06:50:23;;;;;;;8.80;3.38;;;;;;;10.58;100.00;100901.72;8381968;28;20029;-61
2023/10/15 06:54:26;;;;;;;11.50;3.97;;;;;;;10.43;100.00;100908.44;8393863;28;20032;-61
2023/10/15 06:58:28;;;;;;;9.73;3.78;;;;;;;10.44;100.00;100921.00;8394738;28;20449;-61
2023/10/15 07:02:29;;;;;;;5.88;3.63;;;;;;;10.40;100.00;100930.31;8392581;28;20099;-61
2023/10/15 07:06:29;;;;;;;5.90;3.13;;;;;;;10.35;100.00;100921.75;8393237;28;20103;-61
2023/10/15 07:10:30;;;;;;;9.57;3.25;;;;;;;10.35;100.00;100921.75;8391851;28;20064;-61
2023/10/15 07:14:30;;;;;;;8.27;2.97;;;;;;;10.53;100.00;100928.31;8390469;28;20089;-60
2023/10/15 07:18:33;;;;;;;10.27;4.15;;;;;;;10.59;100.00;100924.22;8390607;28;20419;-60
2023/10/15 07:22:33;;;;;;;8.10;3.80;;;;;;;10.46;98.97;100927.09;8378925;28;20044;-59
2023/10/15 07:26:33;;;;;;;8.75;3.97;;;;;;;10.42;98.87;100933.75;8392546;28;20094;-59
2023/10/15 07:30:34;;;;;;;8.27;2.92;;;;;;;10.54;98.99;100948.06;8390725;28;20036;-57
2023/10/15 07:34:34;;;;;;;4.72;2.80;;;;;;;10.87;97.83;100935.25;8392727;28;20044;-58
2023/10/15 07:38:36;;;;;;;7.03;2.60;;;;;;;10.94;95.16;100933.72;8388080;28;20041;-66
2023/10/15 07:42:37;;;;;;;4.72;2.42;;;;;;;10.88;94.51;100936.09;8392377;28;20571;-57
2023/10/15 07:46:38;;;;;;;6.05;2.50;;;;;;;11.25;95.98;100940.00;8391090;28;20379;-60
2023/10/15 07:50:38;;;;;;;6.97;2.20;;;;;;;11.62;94.74;100943.94;8392543;28;20040;-62
2023/10/15 07:54:39;;;;;;;11.45;2.10;;;;;;;11.59;92.21;100944.19;8391303;28;20037;-60
2023/10/15 07:58:41;;;;;;;4.72;1.52;;;;;;;11.63;91.39;100949.22;8390881;28;20510;-60
2023/10/15 08:02:43;;;;;;;9.32;2.40;;;;;;;11.49;91.95;100954.97;8389098;28;20041;-62
2023/10/15 08:06:43;;;;;;;4.03;1.60;;;;;;;11.57;92.10;100957.88;8389079;28;20044;-63
2023/10/15 08:10:43;;;;;;;7.20;1.63;;;;;;;11.65;91.93;100976.16;8383401;28;20029;-61
2023/10/15 08:14:46;;;;;;;5.50;1.63;;;;;;;11.50;90.93;100991.03;8382559;28;20044;-60
2023/10/15 08:18:47;;;;;;;4.20;1.50;;;;;;;11.29;93.77;101007.28;8386139;28;20094;-62
2023/10/15 08:22:48;;;;;;;5.10;1.10;;;;;;;10.69;94.14;101015.25;8387018;28;20037;-58
2023/10/15 08:26:49;;;;;;;4.28;1.20;;;;;;;10.21;95.25;101022.03;8385203;28;20083;-58
2023/10/15 08:30:54;;;;;;;1.70;0.80;;;;;;;10.01;92.27;100993.06;8385700;28;20125;-60
2023/10/15 08:34:54;;;;;;;2.78;0.77;;;;;;;10.11;92.19;100999.44;8386534;28;20037;-60
2023/10/15 08:38:55;;;;;;;1.60;0.70;;;;;;;10.19;93.69;101002.41;8386624;28;20058;-60
2023/10/15 08:43:02;;;;;;;1.00;0.60;;;;;;;10.23;95.96;101003.84;8385671;28;20554;-61
2023/10/15 08:47:04;;;;;;;1.90;0.80;;;;;;;10.34;96.22;101001.09;8419802;28;20049;-61
2023/10/15 08:51:05;;;;;;;1.83;0.60;;;;;;;10.65;96.34;101000.28;8418517;28;20409;-61
2023/10/15 08:55:06;;;;;;;0.70;0.43;;;;;;;10.79;96.52;101013.47;8418589;28;20044;-61
2023/10/15 08:59:09;;;;;;;2.00;0.65;;;;;;;11.06;95.44;101011.13;8420187;28;20444;-61
2023/10/15 09:03:13;;;;;;;1.98;0.47;;;;;;;11.13;94.20;101023.13;8416178;28;20036;-61
2023/10/15 09:07:15;;;;;;;;;;;;;;;11.25;93.78;101027.50;8418506;28;20050;-61
2023/10/15 09:11:17;;;;;;;3.70;0.70;;;;;;;11.31;92.66;101040.50;8415730;28;19927;-59
2023/10/15 09:15:18;;;;;;;4.10;0.80;;;;;;;11.66;93.38;101049.16;8408561;28;20522;-59
2023/10/15 09:19:19;;;;;;;2.45;0.88;;;;;;;11.78;91.80;101052.63;8414756;28;20517;-60
2023/10/15 09:23:21;;;;;;;3.72;1.27;;;;;;;11.86;91.52;101048.25;8415862;28;20552;-58
2023/10/15 09:27:22;;;;;;;2.20;1.30;;;;;;;12.12;92.21;101050.47;8422358;28;20070;-62
2023/10/15 09:31:25;;;;;;;7.43;1.90;;;;;;;12.32;90.41;101052.28;8416200;28;20119;-57
2023/10/15 09:35:25;;;;;;;6.50;1.67;;;;;;;13.80;85.90;101057.13;8416491;28;20036;-58
2023/10/15 09:39:28;;;;;;;2.28;0.90;;;;;;;13.57;83.90;101068.47;8417253;28;20040;-57
2023/10/15 09:43:31;;;;;;;2.70;1.30;;;;;;;13.32;86.40;101071.78;8416399;28;20043;-57
2023/10/15 09:47:33;;;;;;;3.38;1.80;;;;;;;13.10;84.83;101082.94;8416719;28;20047;-58
2023/10/15 09:51:34;;;;;;;3.33;1.77;;;;;;;13.00;85.27;101079.38;8416684;28;20086;-58
2023/10/15 09:55:35;;;;;;;5.82;1.70;;;;;;;12.96;86.17;101088.78;8416713;28;20556;-59
2023/10/15 09:59:35;;;;;;;4.68;1.90;;;;;;;13.06;85.58;101086.97;8415390;28;20116;-60
2023/10/15 10:03:59;;;;;;;6.97;2.28;;;;;;;13.20;84.55;101095.53;8419052;28;20044;-60
2023/10/15 10:08:12;;;;;;;;;;;;;;;13.53;83.72;101105.06;8416148;28;20079;-60
2023/10/15 10:12:50;;;;;;;7.47;2.22;;;;;;;13.52;82.14;101096.09;8420983;28;20374;-60
2023/10/15 10:16:52;;;;;;;8.70;3.08;;;;;;;13.36;84.59;101100.41;8383703;28;20040;-60
2023/10/15 10:20:55;;;;;;;6.70;2.78;;;;;;;12.80;87.75;101110.16;8385179;28;20043;-60
2023/10/15 10:24:59;;;;;;;5.60;3.33;;;;;;;12.45;90.87;101118.81;8388747;28;20121;-61
2023/10/15 10:29:01;;;;;;;6.10;2.73;;;;;;;12.07;90.87;101106.97;8389268;28;20053;-61
2023/10/15 10:33:02;;;;;;;3.88;2.83;;;;;;;11.97;93.90;101119.59;8386505;28;20279;-62
2023/10/15 10:37:03;;;;;;;5.40;3.08;;;;;;;12.17;95.23;101119.53;8421382;28;20044;-60
2023/10/15 10:41:06;;;;;;;7.50;3.50;;;;;;;12.14;93.28;101125.22;8413734;28;20473;-61
2023/10/15 10:45:12;;;;;;;5.88;2.22;;;;;;;12.33;93.90;101136.19;8393042;28;20055;-59
2023/10/15 10:49:13;;;;;;;4.57;2.00;;;;;;;12.47;94.41;101132.25;8403020;28;20448;-59
2023/10/15 10:53:14;;;;;;;4.95;2.15;;;;;;;12.45;92.54;101135.09;8388371;28;20072;-60
2023/10/15 10:57:18;;;;;;;5.47;1.50;;;;;;;12.42;90.92;101134.50;8380627;28;20055;-60
2023/10/15 11:01:19;;;;;;;6.20;2.20;;;;;;;12.62;92.29;101141.69;8382909;28;20032;-58
2023/10/15 11:05:20;;;;;;;5.38;1.35;;;;;;;12.70;92.59;101139.16;8384860;28;20111;-58
2023/10/15 11:09:22;;;;;;;3.88;1.50;;;;;;;12.57;90.67;101133.13;8384827;28;20082;-58
2023/10/15 11:13:23;;;;;;;3.58;1.70;;;;;;;12.82;91.61;101146.19;8386827;28;20048;-61
2023/10/15 11:17:23;;;;;;;8.45;1.20;;;;;;;12.69;89.29;101149.13;8386438;28;20525;-60
2023/10/15 11:21:24;;;;;;;5.68;1.08;;;;;;;12.33;90.91;101163.31;8383338;28;20087;-60
2023/10/15 11:25:25;;;;;;;6.20;1.15;;;;;;;11.98;95.39;101164.69;8384196;28;20317;-60
2023/10/15 11:29:26;;;;;;;6.15;1.00;;;;;;;11.50;95.60;101172.44;8385580;28;20082;-62
2023/10/15 11:33:27;;;;;;;6.03;1.05;;;;;;;11.18;98.38;101177.88;8381815;28;20570;-60
2023/10/15 11:37:29;;;;;;;3.28;0.65;;;;;;;11.54;99.35;101153.09;8384276;28;20050;-60
2023/10/15 11:41:31;;;;;;;6.57;1.38;;;;;;;12.49;98.68;101154.63;8386170;28;20123;-60
2023/10/15 11:45:31;;;;;;;6.32;1.20;;;;;;;15.15;86.08;101151.50;8375499;28;20044;-60
2023/10/15 11:49:32;;;;;;;4.78;0.75;;;;;;;17.62;73.68;101141.31;8385766;28;20328;-61
2023/10/15 11:53:33;;;;;;;2.45;0.45;;;;;;;16.93;71.33;101151.78;8384532;28;20385;-61
2023/10/15 11:57:39;;;;;;;3.10;0.57;;;;;;;16.58;72.77;101143.78;8385921;28;20040;-59
2023/10/15 12:01:39;;;;;;;2.65;0.50;;;;;;;18.26;69.87;101145.84;8384670;28;20380;-60
2023/10/15 12:05:40;;;;;;;3.38;0.52;;;;;;;17.86;66.83;101148.66;8384935;28;20045;-61
2023/10/15 12:09:44;;;;;;;3.22;1.27;;;;;;;16.73;72.12;101142.13;8384734;28;20410;-59
2023/10/15 12:13:47;;;;;;;1.67;0.60;;;;;;;15.26;74.52;101154.03;8385410;28;20025;-58
2023/10/15 12:17:48;;;;;;;3.10;0.60;;;;;;;14.12;78.48;101157.28;8384756;28;20123;-59
2023/10/15 12:21:50;;;;;;;2.92;0.60;;;;;;;15.81;73.84;101153.84;8381245;28;20049;-59
2023/10/15 12:25:50;;;;;;;4.47;0.77;;;;;;;14.86;74.56;101153.59;8389001;28;20032;-59
2023/10/15 12:29:51;;;;;;;1.48;0.60;;;;;;;14.24;78.80;101153.44;8415372;28;20032;-59
2023/10/15 12:33:51;;;;;;;3.65;0.80;;;;;;;14.03;79.50;101149.19;8415610;28;21444;-59
2023/10/15 12:37:58;;;;;;;5.43;0.73;;;;;;;13.99;80.87;101154.03;8416466;28;20048;-59
2023/10/15 12:41:59;;;;;;;4.10;0.63;;;;;;;13.96;80.19;101148.91;8412325;28;20051;-60
2023/10/15 12:46:00;;;;;;;4.85;0.77;;;;;;;13.87;77.35;101149.78;8414184;28;20048;-60
2023/10/15 12:50:00;;;;;;;1.40;0.40;;;;;;;13.98;76.44;101152.34;8415955;28;20058;-61
2023/10/15 12:54:03;;;;;;;3.65;0.55;;;;;;;13.91;75.51;101153.94;8408759;28;20402;-60
2023/10/15 12:58:04;;;;;;;2.38;0.77;;;;;;;14.52;76.05;101147.00;8388816;28;20033;-61
2023/10/15 13:02:04;;;;;;;3.22;0.60;;;;;;;14.47;73.84;101146.63;8380903;28;20036;-59
2023/10/15 13:06:06;;;;;;;4.10;0.50;;;;;;;14.22;74.36;101155.44;8381705;28;20036;-59
2023/10/15 13:10:09;;;;;;;3.22;0.40;;;;;;;14.03;72.58;101150.03;8372203;28;20398;-57
2023/10/15 13:14:10;;;;;;;2.30;0.98;;;;;;;13.79;74.73;101168.69;8391351;28;20475;-60
2023/10/15 13:18:11;;;;;;;2.40;0.50;;;;;;;13.63;73.27;101168.41;8415751;28;20374;-60
2023/10/15 13:22:11;;;;;;;2.47;0.55;;;;;;;13.96;74.48;101170.66;8416644;28;20036;-60
2023/10/15 13:26:12;;;;;;;6.32;1.27;;;;;;;13.78;73.14;101166.97;8395264;28;20041;-60
2023/10/15 13:30:13;;;;;;;3.67;0.90;;;;;;;13.89;74.95;101180.41;8379045;28;20044;-60
2023/10/15 13:34:14;;;;;;;3.40;0.47;;;;;;;13.81;75.11;101177.53;8374442;28;20512;-60
2023/10/15 13:38:14;;;;;;;1.45;0.32;;;;;;;13.51;74.89;101180.44;8380884;28;20066;-60
2023/10/15 13:42:16;;;;;;;2.92;0.65;;;;;;;13.31;73.20;101173.28;8382365;28;20037;-63
2023/10/15 13:46:16;;;;;;;5.95;0.70;;;;;;;13.43;72.84;101172.16;8381334;28;20037;-61
2023/10/15 13:50:17;;;;;;;3.17;0.70;;;;;;;13.48;73.04;101187.00;8378712;28;20052;-60
2023/10/15 13:54:18;;;;;;;3.13;0.50;;;;;;;13.36;74.26;101176.44;8380691;28;20055;-60
2023/10/15 13:58:19;;;;;;;3.40;0.50;;;;;;;13.32;72.07;101183.13;8379590;28;20131;-60
2023/10/15 14:02:19;;;;;;;6.88;0.73;;;;;;;13.39;72.41;101187.84;8379612;28;20237;-60
2023/10/15 14:06:19;;;;;;;2.58;0.93;;;;;;;13.39;71.35;101193.28;8381290;28;20044;-60
2023/10/15 14:10:20;;;;;;;3.60;0.35;;;;;;;13.40;71.67;101194.16;8380202;28;20044;-60
2023/10/15 14:14:20;;;;;;;3.30;1.00;;;;;;;13.28;71.44;101196.16;8378138;28;20120;-60
2023/10/15 14:18:21;;;;;;;2.67;0.40;;;;;;;13.18;70.72;101197.97;8378789;28;20032;-60
2023/10/15 14:22:23;;;;;;;1.20;0.35;;;;;;;13.18;71.36;101194.44;8380346;28;20046;-59
2023/10/15 14:26:24;;;;;;;3.15;0.50;;;;;;;13.44;72.39;101201.00;8381621;28;20047;-57
2023/10/15 14:30:24;;;;;;;4.20;0.70;;;;;;;13.57;69.49;101201.59;8370574;28;20491;-59
2023/10/15 14:34:27;;;;;;;4.20;0.50;;;;;;;13.83;69.00;101203.59;8374288;28;20039;-60
2023/10/15 14:38:29;;;;;;;2.40;0.77;;;;;;;13.79;68.71;101213.03;8360108;28;20040;-60
2023/10/15 14:42:30;;;;;;;4.65;0.35;;;;;;;14.03;67.30;101215.28;8368584;28;20044;-59
2023/10/15 14:46:32;;;;;;;5.57;0.60;;;;;;;14.07;69.07;101219.44;8379288;28;20093;-59
2023/10/15 14:50:33;;;;;;;3.85;0.75;;;;;;;13.88;68.38;101236.63;8379550;28;20407;-59
2023/10/15 14:54:34;;;;;;;2.47;0.43;;;;;;;13.90;69.47;101220.16;8419726;28;20040;-59
2023/10/15 14:58:35;;;;;;;4.28;1.10;;;;;;;13.96;69.82;101226.91;8420436;28;20447;-60
2023/10/15 15:02:35;;;;;;;4.38;0.77;;;;;;;13.81;67.58;101232.78;8415241;28;20451;-61
2023/10/15 15:06:36;;;;;;;5.80;1.20;;;;;;;13.70;67.09;101227.47;8420044;28;20047;-59
2023/10/15 15:10:36;;;;;;;3.28;0.50;;;;;;;13.73;68.36;101239.94;8419775;28;20569;-60
2023/10/15 15:14:37;;;;;;;6.13;0.57;;;;;;;13.88;67.79;101228.47;8417995;28;20395;-60
2023/10/15 15:18:38;;;;;;;3.97;0.60;;;;;;;13.96;67.89;101238.63;8418450;28;20489;-60
2023/10/15 15:22:38;;;;;;;3.25;0.60;;;;;;;13.97;69.15;101243.06;8417534;28;20036;-60
2023/10/15 15:26:39;;;;;;;2.70;0.68;;;;;;;14.00;65.83;101231.03;8416734;28;20047;-60
2023/10/15 15:30:40;;;;;;;3.22;0.45;;;;;;;13.94;68.24;101227.06;8417452;28;20057;-60
2023/10/15 15:34:41;;;;;;;3.08;0.82;;;;;;;13.87;69.62;101228.63;8415409;28;20095;-58
2023/10/15 15:38:41;;;;;;;6.05;0.60;;;;;;;13.80;69.62;101235.63;8417454;28;20035;-58
2023/10/15 15:42:42;;;;;;;7.43;0.65;;;;;;;13.71;69.17;101244.66;8416533;28;20040;-60
2023/10/15 15:46:43;;;;;;;3.33;0.43;;;;;;;13.52;69.24;101240.06;8416352;28;20033;-60
2023/10/15 15:50:44;;;;;;;2.08;0.40;;;;;;;13.55;69.06;101237.03;8418469;28;20034;-60
2023/10/15 15:54:44;;;;;;;4.90;0.50;;;;;;;13.64;67.90;101240.78;8417134;28;20482;-60
2023/10/15 15:58:45;;;;;;;8.00;0.50;;;;;;;13.65;67.68;101242.50;8417039;28;20071;-61
2023/10/15 16:02:47;;;;;;;5.07;1.25;;;;;;;13.53;69.08;101240.91;8420747;28;20510;-62
2023/10/15 16:06:48;;;;;;;7.90;1.10;;;;;;;13.45;69.75;101243.50;8418248;28;20134;-62
2023/10/15 16:10:49;;;;;;;8.02;2.10;;;;;;;13.30;72.10;101242.19;8415657;28;20051;-61
2023/10/15 16:14:49;;;;;;;9.23;5.15;;;;;;;13.03;74.44;101252.84;8417365;28;20579;-61
2023/10/15 16:18:49;;;;;;;6.88;1.95;;;;;;;12.83;75.23;101248.28;8417827;28;20036;-61
2023/10/15 16:22:50;;;;;;;4.88;1.20;;;;;;;12.91;74.21;101251.19;8416357;28;20131;-61
2023/10/15 16:26:50;;;;;;;8.68;2.28;;;;;;;12.83;76.63;101254.59;8416997;28;20043;-61
2023/10/15 16:30:52;;;;;;;6.40;1.35;;;;;;;12.81;75.04;101266.59;8414085;28;20047;-60
2023/10/15 16:34:53;;;;;;;8.13;0.90;;;;;;;12.70;76.00;101264.81;8414981;28;20055;-59
2023/10/15 16:38:53;;;;;;;7.53;0.90;;;;;;;12.75;75.34;101272.56;8406128;28;20070;-58
2023/10/15 16:42:55;;;;;;;3.17;0.80;;;;;;;12.74;76.26;101281.66;8413439;28;20440;-59
2023/10/15 16:46:56;;;;;;;2.58;1.00;;;;;;;12.63;76.00;101290.75;8390163;28;20293;-59
2023/10/15 16:50:59;;;;;;;8.95;1.42;;;;;;;12.53;76.18;101289.00;8416575;28;20089;-63
2023/10/15 16:54:59;;;;;;;5.57;0.90;;;;;;;12.42;75.92;101298.09;8416137;28;20048;-64
2023/10/15 16:58:59;;;;;;;6.65;1.58;;;;;;;12.44;76.26;101306.09;8416575;28;20413;-61
2023/10/15 17:03:01;;;;;;;6.85;1.58;;;;;;;12.45;76.21;101313.22;8416400;28;20071;-62
2023/10/15 17:07:01;;;;;;;5.45;2.53;;;;;;;12.47;75.69;101311.25;8415905;28;20043;-62
2023/10/15 17:11:02;;;;;;;5.15;2.13;;;;;;;12.30;76.65;101319.97;8415998;28;20125;-61
2023/10/15 17:15:03;;;;;;;6.75;1.70;;;;;;;12.26;76.74;101326.66;8402928;28;20391;-61
2023/10/15 17:19:03;;;;;;;7.25;1.48;;;;;;;12.14;77.95;101327.69;8419977;28;20032;-62
2023/10/15 17:23:04;;;;;;;7.35;1.50;;;;;;;12.06;78.92;101332.91;8410899;28;20493;-62
2023/10/15 17:27:05;;;;;;;3.95;1.30;;;;;;;11.96;78.68;101332.84;8397505;28;20524;-62
2023/10/15 17:31:06;;;;;;;4.28;1.00;;;;;;;11.95;78.20;101335.69;8418347;28;20506;-64
2023/10/15 17:35:06;;;;;;;3.63;1.52;;;;;;;11.85;78.29;101346.41;8412695;28;20532;-62
2023/10/15 17:39:07;;;;;;;5.53;2.28;;;;;;;11.79;78.64;101355.94;8410560;28;20044;-61
2023/10/15 17:43:08;;;;;;;8.55;2.42;;;;;;;11.62;79.61;101355.63;8412188;28;20051;-62
2023/10/15 17:47:08;;;;;;;12.82;3.00;;;;;;;11.42;80.86;101351.81;8411826;28;20041;-61
2023/10/15 17:51:10;;;;;;;12.85;3.22;;;;;;;11.30;81.58;101350.09;8378544;28;20049;-61
2023/10/15 17:55:11;;;;;;;11.48;2.80;;;;;;;11.15;81.89;101367.56;8392588;28;20047;-62
2023/10/15 17:59:11;;;;;;;6.70;1.88;;;;;;;11.00;82.11;101360.69;8406605;28;20137;-62
2023/10/15 18:03:12;;;;;;;5.55;1.80;;;;;;;10.95;83.22;101359.34;8412365;28;20697;-60
2023/10/15 18:07:12;;;;;;;9.50;2.28;;;;;;;10.99;83.40;101369.78;8411502;28;20148;-58
2023/10/15 18:11:13;;;;;;;11.30;2.97;;;;;;;10.99;83.65;101380.63;8411613;28;20044;-61
2023/10/15 18:15:14;;;;;;;4.80;1.90;;;;;;;10.95;84.03;101380.97;8412009;28;20074;-58
2023/10/15 18:19:14;;;;;;;10.40;2.17;;;;;;;10.87;85.02;101372.59;8411299;28;20077;-58
2023/10/15 18:23:15;;;;;;;6.00;1.67;;;;;;;10.79;85.32;101381.31;8410769;28;20429;-58
2023/10/15 18:27:16;;;;;;;6.38;2.08;;;;;;;10.68;85.52;101383.16;8415265;28;20108;-57
2023/10/15 18:31:17;;;;;;;2.67;1.17;;;;;;;10.62;85.96;101384.50;8419791;28;20085;-58
2023/10/15 18:35:18;;;;;;;4.43;1.20;;;;;;;10.64;86.01;101390.63;8418311;28;20510;-57
2023/10/15 18:39:18;;;;;;;7.13;1.40;;;;;;;10.58;86.80;101391.09;8414782;28;20414;-57
2023/10/15 18:43:19;;;;;;;3.88;1.00;;;;;;;10.47;87.31;101391.09;8416756;28;20040;-58
2023/10/15 18:47:19;;;;;;;5.32;1.30;;;;;;;10.50;87.08;101396.28;8417764;28;20106;-57
2023/10/15 18:51:20;;;;;;;5.57;1.70;;;;;;;10.50;88.73;101390.88;8416441;28;20051;-58